»·PEaware :: N774DF KVGT-U08

N774DF :: KVGT-U08

FLIGHT INFORMATION

Flight Status: Arrived
Operator: Privately registered:
United States
More flights under this callsign
Pilot: Greg S. (26686)
Aircraft: BEECH AIRCRAFT BONANZA
(BE35)
More flights by this aircraft type
Origin: KVGT North Las Vegas
United States
Destination: U08 Perkins
United States
More flights between these airports :: More routes between these airports
Route: +
File this flight plan on PilotEdge
Remarks:
Altitude:
(Current/Filed)
0ft
Speed:
(Current/Filed)
0kts
Departed: 07-Sep-20 03:42 PM
Arrived: 07-Sep-20 04:08 PM
Distance/Time
Traveled:
42nm/0:26
Distance/Time
To Go:
Arrived

Flight Plot

Page will automatically refresh every two minutes.

Flight plan parsing failed; only flown route is shown


Map Options




Map Legend


Flown Route
Filed Route
Departure Airport
Arrival Airport
Navaid (VOR, NDB)
Fix

Horizontal Profiles

Position Reports

Time Latitude Longitude Heading Altitude Ground
Speed
07-Sep-20 15:26 36.209269 -115.198762 314 2208ft 0kts
07-Sep-20 15:27 36.209269 -115.198762 314 2208ft 0kts
07-Sep-20 15:28 36.209270 -115.198763 317 2208ft 0kts
07-Sep-20 15:29 36.209270 -115.198763 317 2208ft 0kts
07-Sep-20 15:30 36.209158 -115.196846 135 2208ft 20kts
07-Sep-20 15:31 36.205570 -115.192300 134 2208ft 22kts
07-Sep-20 15:32 36.204519 -115.191116 19 2208ft 0kts
07-Sep-20 15:33 36.204519 -115.191116 19 2208ft 0kts
07-Sep-20 15:34 36.204519 -115.191116 19 2208ft 0kts
07-Sep-20 15:35 36.204519 -115.191116 19 2208ft 0kts
07-Sep-20 15:36 36.204519 -115.191116 19 2208ft 0kts
07-Sep-20 15:37 36.204519 -115.191116 19 2208ft 0kts
07-Sep-20 15:38 36.204519 -115.191116 19 2208ft 0kts
07-Sep-20 15:39 36.204524 -115.191114 21 2208ft 0kts
07-Sep-20 15:40 36.204586 -115.191096 5 2208ft 0kts
07-Sep-20 15:41 36.216016 -115.203343 319 2529ft 93kts
07-Sep-20 15:42 36.233702 -115.218888 325 3447ft 86kts
07-Sep-20 15:43 36.254339 -115.237817 320 3662ft 92kts
07-Sep-20 15:44 36.277299 -115.250311 340 3641ft 107kts
07-Sep-20 15:45 36.301304 -115.267148 312 3750ft 102kts
07-Sep-20 15:46 36.322289 -115.269354 84 3973ft 116kts
07-Sep-20 15:47 36.305217 -115.231538 93 3883ft 134kts
07-Sep-20 15:48 36.302369 -115.190568 97 3945ft 135kts
07-Sep-20 15:49 36.301366 -115.150154 66 4714ft 99kts
07-Sep-20 15:50 36.315542 -115.110405 60 5281ft 131kts
07-Sep-20 15:51 36.331652 -115.070168 65 6025ft 135kts
07-Sep-20 15:52 36.335963 -115.023398 116 6546ft 154kts
07-Sep-20 15:53 36.338703 -114.976872 86 7038ft 156kts
07-Sep-20 15:54 36.356085 -114.926947 50 7123ft 160kts
07-Sep-20 15:55 36.386453 -114.885857 49 6917ft 168kts
07-Sep-20 15:56 36.409428 -114.837609 58 6949ft 156kts
07-Sep-20 15:57 36.426604 -114.788539 71 7058ft 153kts
07-Sep-20 15:58 36.436079 -114.736416 71 7186ft 145kts
07-Sep-20 15:59 36.448514 -114.686129 58 7137ft 155kts
07-Sep-20 16:00 36.466449 -114.636409 71 7020ft 161kts
07-Sep-20 16:01 36.496896 -114.604672 21 6756ft 149kts
07-Sep-20 16:02 36.523918 -114.564663 40 6579ft 143kts
07-Sep-20 16:03 36.557805 -114.527922 43 5252ft 160kts
07-Sep-20 16:04 36.565205 -114.468913 85 3301ft 196kts
07-Sep-20 16:05 36.530465 -114.443035 118 2724ft 142kts
07-Sep-20 16:06 36.550037 -114.431049 335 1870ft 127kts
07-Sep-20 16:07 36.568345 -114.443568 334 1361ft 28kts
07-Sep-20 16:08 36.572253 -114.446031 332 1360ft 3kts
07-Sep-20 16:09 36.573653 -114.447946 60 1360ft 3kts
07-Sep-20 16:10 36.573676 -114.447870 69 1360ft 0kts
07-Sep-20 16:11 36.573676 -114.447870 69 1360ft 0kts
07-Sep-20 16:12 36.573676 -114.447870 69 1360ft 0kts
07-Sep-20 16:13 36.573676 -114.447870 69 1360ft 0kts
07-Sep-20 16:14 36.573676 -114.447870 69 1360ft 0kts
07-Sep-20 16:15 36.573676 -114.447870 69 1360ft 0kts
07-Sep-20 16:16 36.573676 -114.447870 69 1360ft 0kts
07-Sep-20 16:17 36.573676 -114.447870 69 1360ft 0kts
07-Sep-20 16:18 36.573676 -114.447870 69 1360ft 0kts
07-Sep-20 16:19 36.573676 -114.447870 69 1360ft 0kts
07-Sep-20 16:20 36.573676 -114.447870 69 1360ft 0kts
07-Sep-20 16:21 36.573676 -114.447870 69 1360ft 0kts

Navigation Log

Ident Type
Flight plan parsing failed, navigation log unavailable